Time;durP1;ratioP1;P1;durP2;ratioP2;P2;SDS_P1;SDS_P2;PMS_P1;PMS_P2;Temp;Humidity;BMP_temperature;BMP_pressure;BME280_temperature;BME280_humidity;BME280_pressure;Samples;Min_cycle;Max_cycle;Signal;HPM_P1;HPM_P2
2020/12/22 06:02:29;;;;;;;4.57;0.88;;;;;;;;;;5101760;27;881890;-61
2020/12/22 06:04:57;;;;;;;1.70;0.32;;;;;;;;;;5124650;28;20032;-61
2020/12/22 06:07:23;;;;;;;2.17;0.40;;;;;;;;;;5108029;28;20016;-62
2020/12/22 06:09:50;;;;;;;3.95;0.40;;;;;;;;;;5112989;28;20039;-62
2020/12/22 06:12:16;;;;;;;2.53;0.60;;;;;;;;;;5113750;28;20590;-61
2020/12/22 06:14:44;;;;;;;1.25;0.45;;;;;;;;;;5111833;28;20035;-62
2020/12/22 06:17:10;;;;;;;3.22;0.52;;;;;;;;;;5109821;27;20098;-62
2020/12/22 06:19:37;;;;;;;2.13;0.43;;;;;;;;;;5113043;28;20076;-61
2020/12/22 06:22:03;;;;;;;1.58;0.40;;;;;;;;;;5112381;27;20024;-61
2020/12/22 06:24:30;;;;;;;3.05;0.60;;;;;;;;;;5112705;28;20032;-61
2020/12/22 06:27:06;;;;;;;2.33;0.60;;;;;;;;;;5113143;28;20055;-61
2020/12/22 06:29:33;;;;;;;3.72;0.63;;;;;;;;;;5109954;28;20028;-61
2020/12/22 06:32:17;;;;;;;4.50;1.10;;;;;;;;;;5112577;27;20023;-61
2020/12/22 06:34:47;;;;;;;2.05;0.65;;;;;;;;;;5112684;28;20067;-61
2020/12/22 06:37:13;;;;;;;3.15;0.68;;;;;;;;;;5112633;28;20454;-61
2020/12/22 06:39:46;;;;;;;2.38;1.00;;;;;;;;;;5112544;28;20024;-61
2020/12/22 06:42:32;;;;;;;2.72;1.23;;;;;;;;;;5120628;27;20072;-61
2020/12/22 06:45:16;;;;;;;6.63;1.00;;;;;;;;;;5133817;27;20479;-61
2020/12/22 06:47:43;;;;;;;1.58;0.60;;;;;;;;;;5111247;28;20030;-61
2020/12/22 06:50:09;;;;;;;2.97;0.77;;;;;;;;;;5108658;28;20542;-60
2020/12/22 06:52:35;;;;;;;2.70;0.85;;;;;;;;;;5112439;28;20031;-61
2020/12/22 06:55:03;;;;;;;6.35;1.30;;;;;;;;;;5112350;28;20472;-61
2020/12/22 06:57:48;;;;;;;6.70;1.00;;;;;;;;;;5112455;28;20061;-61
2020/12/22 07:00:24;;;;;;;3.70;0.90;;;;;;;;;;5111650;28;20028;-61
2020/12/22 07:02:51;;;;;;;1.48;0.82;;;;;;;;;;5100750;28;20346;-60
2020/12/22 07:05:49;;;;;;;4.93;0.90;;;;;;;;;;5094327;28;20039;-61
2020/12/22 07:08:19;;;;;;;4.78;0.90;;;;;;;;;;4995115;28;20033;-61
2020/12/22 07:10:46;;;;;;;7.15;0.95;;;;;;;;;;4996550;28;20515;-65
2020/12/22 07:13:13;;;;;;;5.70;1.02;;;;;;;;;;5008062;28;20534;-64
2020/12/22 07:15:49;;;;;;;3.50;1.02;;;;;;;;;;5008746;28;20121;-64
2020/12/22 07:18:18;;;;;;;5.60;1.00;;;;;;;;;;5006955;28;20061;-64
2020/12/22 07:20:44;;;;;;;3.65;0.70;;;;;;;;;;5001759;28;20037;-64
2020/12/22 07:23:12;;;;;;;5.38;0.80;;;;;;;;;;4979416;28;20042;-65
2020/12/22 07:25:38;;;;;;;3.17;1.00;;;;;;;;;;4997458;28;20542;-65
2020/12/22 07:28:05;;;;;;;3.95;1.00;;;;;;;;;;5000385;28;20030;-65
2020/12/22 07:30:32;;;;;;;2.63;0.65;;;;;;;;;;5006582;28;20054;-65
2020/12/22 07:32:59;;;;;;;5.45;0.90;;;;;;;;;;4999400;28;20030;-65
2020/12/22 07:35:26;;;;;;;4.47;0.80;;;;;;;;;;5007498;28;20415;-65
2020/12/22 07:37:53;;;;;;;3.25;0.70;;;;;;;;;;4995780;28;20121;-65
2020/12/22 07:40:19;;;;;;;2.53;0.70;;;;;;;;;;4998961;28;20645;-66
2020/12/22 07:42:45;;;;;;;1.30;0.35;;;;;;;;;;5004010;28;20038;-65
2020/12/22 07:45:11;;;;;;;4.07;0.50;;;;;;;;;;5099280;28;20055;-66
2020/12/22 07:47:37;;;;;;;1.17;0.30;;;;;;;;;;5099086;28;20016;-61
2020/12/22 07:50:16;;;;;;;2.75;0.40;;;;;;;;;;5094792;27;20032;-61
2020/12/22 07:52:43;;;;;;;3.63;0.68;;;;;;;;;;5097362;28;20047;-61
2020/12/22 07:55:09;;;;;;;3.38;0.57;;;;;;;;;;5097806;28;20031;-61
2020/12/22 07:57:39;;;;;;;2.38;0.38;;;;;;;;;;5100770;28;20066;-61
2020/12/22 08:00:07;;;;;;;2.05;0.50;;;;;;;;;;5107560;28;20042;-61
2020/12/22 08:02:33;;;;;;;3.10;0.43;;;;;;;;;;5094349;28;20047;-61
2020/12/22 08:05:13;;;;;;;2.08;0.38;;;;;;;;;;5095256;28;20059;-61
2020/12/22 08:07:42;;;;;;;1.92;0.45;;;;;;;;;;5097121;28;20074;-61
2020/12/22 08:10:09;;;;;;;4.18;0.60;;;;;;;;;;5097569;28;20047;-61
2020/12/22 08:12:36;;;;;;;3.50;0.50;;;;;;;;;;5097264;28;20091;-61
2020/12/22 08:15:02;;;;;;;3.72;0.65;;;;;;;;;;5096206;28;20028;-61
2020/12/22 08:17:28;;;;;;;4.75;1.00;;;;;;;;;;5107471;27;20024;-61
2020/12/22 08:19:55;;;;;;;3.97;0.60;;;;;;;;;;5118768;27;20024;-61
2020/12/22 08:22:21;;;;;;;3.65;0.60;;;;;;;;;;5107686;27;20038;-61
2020/12/22 08:24:47;;;;;;;8.52;1.10;;;;;;;;;;5101358;28;20064;-61
2020/12/22 08:27:13;;;;;;;3.70;0.82;;;;;;;;;;5097581;28;20158;-60
2020/12/22 08:29:42;;;;;;;6.13;1.17;;;;;;;;;;5094324;28;20023;-61
2020/12/22 08:32:08;;;;;;;8.30;0.90;;;;;;;;;;5108868;28;20034;-61
2020/12/22 08:34:34;;;;;;;7.63;1.10;;;;;;;;;;5096444;28;20031;-61
2020/12/22 08:37:10;;;;;;;8.20;1.17;;;;;;;;;;5103824;28;20143;-62
2020/12/22 08:39:40;;;;;;;12.27;1.42;;;;;;;;;;5102460;28;20074;-61
2020/12/22 08:42:10;;;;;;;8.48;1.30;;;;;;;;;;5096343;28;20027;-61
2020/12/22 08:44:36;;;;;;;4.60;0.95;;;;;;;;;;5105778;28;20500;-61
2020/12/22 08:47:12;;;;;;;5.40;1.05;;;;;;;;;;5105410;28;20042;-61
2020/12/22 08:49:38;;;;;;;9.77;1.23;;;;;;;;;;5101515;28;20020;-61
2020/12/22 08:52:16;;;;;;;7.45;1.17;;;;;;;;;;5099824;28;20087;-61
2020/12/22 08:54:43;;;;;;;7.20;0.85;;;;;;;;;;5106361;28;20130;-61
2020/12/22 08:57:09;;;;;;;10.13;1.38;;;;;;;;;;5105624;28;20028;-60
2020/12/22 08:59:35;;;;;;;8.20;1.20;;;;;;;;;;5106707;28;20031;-61
2020/12/22 09:02:02;;;;;;;12.70;1.30;;;;;;;;;;5108310;28;20054;-61
2020/12/22 09:04:29;;;;;;;6.65;1.80;;;;;;;;;;5101988;28;20042;-61
2020/12/22 09:06:55;;;;;;;5.88;1.20;;;;;;;;;;5103263;28;20529;-61
2020/12/22 09:09:30;;;;;;;11.45;1.75;;;;;;;;;;5102158;28;20031;-61
2020/12/22 09:12:09;;;;;;;10.82;1.38;;;;;;;;;;5103210;28;20046;-61
2020/12/22 09:14:39;;;;;;;5.97;1.25;;;;;;;;;;5106921;28;20073;-61
2020/12/22 09:17:05;;;;;;;9.45;1.90;;;;;;;;;;5108677;28;20043;-60
2020/12/22 09:20:01;;;;;;;10.95;1.48;;;;;;;;;;5108366;28;20035;-61
2020/12/22 09:22:31;;;;;;;7.65;1.15;;;;;;;;;;5089883;28;20135;-60
2020/12/22 09:24:57;;;;;;;11.18;1.80;;;;;;;;;;5105327;28;20023;-60
2020/12/22 09:27:31;;;;;;;11.02;1.40;;;;;;;;;;5106370;28;20027;-60
2020/12/22 09:29:57;;;;;;;6.95;1.20;;;;;;;;;;5105818;28;20524;-61
2020/12/22 09:32:23;;;;;;;12.70;1.23;;;;;;;;;;5106501;28;20027;-60
2020/12/22 09:34:49;;;;;;;12.52;2.00;;;;;;;;;;5109365;28;20023;-61
2020/12/22 09:37:15;;;;;;;8.52;1.33;;;;;;;;;;5105590;28;20115;-60
2020/12/22 09:39:42;;;;;;;8.43;1.65;;;;;;;;;;5105237;28;20067;-61
2020/12/22 09:42:08;;;;;;;13.68;1.88;;;;;;;;;;5105575;28;20028;-60
2020/12/22 09:44:35;;;;;;;4.68;1.20;;;;;;;;;;5107674;28;20012;-61
2020/12/22 09:47:02;;;;;;;11.18;1.55;;;;;;;;;;5107592;28;20087;-62
2020/12/22 09:49:28;;;;;;;10.57;1.75;;;;;;;;;;5114226;28;20020;-61
2020/12/22 09:51:54;;;;;;;11.68;1.38;;;;;;;;;;5116343;28;20534;-60
2020/12/22 09:54:21;;;;;;;15.18;1.80;;;;;;;;;;5112296;28;20015;-60
2020/12/22 09:56:48;;;;;;;9.60;1.67;;;;;;;;;;5112205;28;20504;-68
2020/12/22 09:59:14;;;;;;;12.10;1.92;;;;;;;;;;5116857;27;20025;-61
2020/12/22 10:01:41;;;;;;;17.67;2.60;;;;;;;;;;5101064;28;20054;-61
2020/12/22 10:04:08;;;;;;;6.18;1.27;;;;;;;;;;5092953;28;20047;-61
2020/12/22 10:06:34;;;;;;;11.30;1.65;;;;;;;;;;5090999;28;20024;-61
2020/12/22 10:09:00;;;;;;;8.05;1.70;;;;;;;;;;5090108;28;20032;-60
2020/12/22 10:11:27;;;;;;;14.20;1.80;;;;;;;;;;5090957;28;20505;-64
2020/12/22 10:13:53;;;;;;;8.52;1.45;;;;;;;;;;5090758;28;20406;-63
2020/12/22 10:16:20;;;;;;;10.60;2.10;;;;;;;;;;5092791;28;20019;-60
2020/12/22 10:18:47;;;;;;;8.80;1.98;;;;;;;;;;5092666;28;20032;-60
2020/12/22 10:21:14;;;;;;;10.13;1.65;;;;;;;;;;5097404;28;20028;-60
2020/12/22 10:23:40;;;;;;;7.95;1.92;;;;;;;;;;5101387;28;20046;-60
2020/12/22 10:26:08;;;;;;;7.57;1.60;;;;;;;;;;5102548;28;20500;-60
2020/12/22 10:28:35;;;;;;;8.45;1.67;;;;;;;;;;5102848;28;20027;-60
2020/12/22 10:31:01;;;;;;;4.53;1.00;;;;;;;;;;5103162;28;20031;-60
2020/12/22 10:33:27;;;;;;;8.10;1.73;;;;;;;;;;5101185;28;20040;-60
2020/12/22 10:35:53;;;;;;;9.80;2.03;;;;;;;;;;5096337;28;20027;-69
2020/12/22 10:38:20;;;;;;;9.30;1.40;;;;;;;;;;5097547;28;20022;-60
2020/12/22 10:40:46;;;;;;;7.25;1.30;;;;;;;;;;5095424;28;20039;-60
2020/12/22 10:43:12;;;;;;;5.88;0.98;;;;;;;;;;5087668;28;20495;-60
2020/12/22 10:45:38;;;;;;;11.07;1.98;;;;;;;;;;5093119;28;20036;-61
2020/12/22 10:48:06;;;;;;;6.68;1.02;;;;;;;;;;5094489;28;20034;-61
2020/12/22 10:50:32;;;;;;;7.13;1.13;;;;;;;;;;5093337;28;20072;-61
2020/12/22 10:52:58;;;;;;;6.50;0.90;;;;;;;;;;5093963;28;20081;-60
2020/12/22 10:55:24;;;;;;;7.82;1.27;;;;;;;;;;5094973;28;20044;-61
2020/12/22 10:57:53;;;;;;;8.48;1.52;;;;;;;;;;5094837;28;20028;-61
2020/12/22 11:00:19;;;;;;;7.35;1.45;;;;;;;;;;5095125;28;20035;-60
2020/12/22 11:02:48;;;;;;;10.32;1.88;;;;;;;;;;5096798;27;20484;-60
2020/12/22 11:05:14;;;;;;;7.72;1.38;;;;;;;;;;5105894;27;20447;-61
2020/12/22 11:10:12;;;;;;;8.93;1.75;;;;;;;;;;5100667;28;20407;-60
2020/12/22 11:12:40;;;;;;;8.27;1.35;;;;;;;;;;5105129;27;20519;-60
2020/12/22 11:15:06;;;;;;;6.90;1.10;;;;;;;;;;5098814;28;20493;-60
2020/12/22 11:17:32;;;;;;;6.97;1.35;;;;;;;;;;5102584;28;20040;-60
2020/12/22 11:19:58;;;;;;;8.13;1.42;;;;;;;;;;5094158;28;20477;-60
2020/12/22 11:22:24;;;;;;;2.88;0.80;;;;;;;;;;5094764;27;20443;-60
2020/12/22 11:24:50;;;;;;;9.25;2.17;;;;;;;;;;5107424;27;20027;-60
2020/12/22 11:27:16;;;;;;;7.45;1.45;;;;;;;;;;5107187;27;20032;-60
2020/12/22 11:29:43;;;;;;;6.45;1.30;;;;;;;;;;5096728;28;20129;-60
2020/12/22 11:32:10;;;;;;;6.53;1.90;;;;;;;;;;5095726;28;20493;-60
2020/12/22 11:34:37;;;;;;;7.93;1.27;;;;;;;;;;5097887;28;20029;-60
2020/12/22 11:37:03;;;;;;;11.98;1.38;;;;;;;;;;5097978;28;20036;-60
2020/12/22 11:39:29;;;;;;;8.30;1.40;;;;;;;;;;5105812;27;20016;-60
2020/12/22 11:42:02;;;;;;;11.30;1.48;;;;;;;;;;5109950;28;20123;-60
2020/12/22 11:44:28;;;;;;;5.88;1.70;;;;;;;;;;5098869;28;20036;-60
2020/12/22 11:46:54;;;;;;;7.03;1.85;;;;;;;;;;5105268;28;20020;-61
2020/12/22 11:49:21;;;;;;;7.78;1.80;;;;;;;;;;5110588;28;20124;-61
2020/12/22 11:51:47;;;;;;;10.13;1.70;;;;;;;;;;5118626;27;20047;-60
2020/12/22 11:54:13;;;;;;;7.95;1.55;;;;;;;;;;5116266;27;20578;-60
2020/12/22 11:56:39;;;;;;;6.88;1.40;;;;;;;;;;5107463;28;20024;-61
2020/12/22 11:59:05;;;;;;;5.22;1.08;;;;;;;;;;5095452;28;20111;-60
2020/12/22 12:01:31;;;;;;;4.10;1.25;;;;;;;;;;5096694;28;20048;-65
2020/12/22 12:03:57;;;;;;;7.70;1.50;;;;;;;;;;5106011;28;20036;-61
2020/12/22 12:06:24;;;;;;;9.48;1.30;;;;;;;;;;5105452;28;20500;-59
2020/12/22 12:08:50;;;;;;;4.07;1.30;;;;;;;;;;5097138;28;20028;-61
2020/12/22 12:11:16;;;;;;;7.30;1.52;;;;;;;;;;5099034;28;20036;-61
2020/12/22 12:13:42;;;;;;;5.82;1.50;;;;;;;;;;5106336;27;20036;-61
2020/12/22 12:16:09;;;;;;;6.10;1.73;;;;;;;;;;5100671;28;20024;-62
2020/12/22 12:18:36;;;;;;;4.40;1.20;;;;;;;;;;5104537;28;20026;-61
2020/12/22 12:21:03;;;;;;;4.07;1.00;;;;;;;;;;5107410;28;20435;-61
2020/12/22 12:23:29;;;;;;;6.63;1.83;;;;;;;;;;5106979;27;20482;-61
2020/12/22 12:25:56;;;;;;;7.40;1.20;;;;;;;;;;5105829;28;20085;-61
2020/12/22 12:28:22;;;;;;;6.53;1.45;;;;;;;;;;5106668;28;20152;-61
2020/12/22 12:30:48;;;;;;;5.53;1.20;;;;;;;;;;5105308;28;20027;-61
2020/12/22 12:33:14;;;;;;;4.40;1.02;;;;;;;;;;5102555;28;20081;-62
2020/12/22 12:35:41;;;;;;;2.70;0.80;;;;;;;;;;5106141;28;20086;-61
2020/12/22 12:38:07;;;;;;;3.50;1.15;;;;;;;;;;5109752;28;20027;-61
2020/12/22 12:40:33;;;;;;;7.65;1.00;;;;;;;;;;5108479;28;20518;-61
2020/12/22 12:43:00;;;;;;;4.35;1.48;;;;;;;;;;5107389;28;20054;-61
2020/12/22 12:45:26;;;;;;;6.65;1.33;;;;;;;;;;5113204;27;20016;-61
2020/12/22 12:47:53;;;;;;;7.47;1.60;;;;;;;;;;5107657;27;20116;-60
2020/12/22 12:50:19;;;;;;;7.43;1.40;;;;;;;;;;5110357;27;20495;-61
2020/12/22 12:52:45;;;;;;;5.85;1.15;;;;;;;;;;5110497;28;20071;-61
2020/12/22 12:55:11;;;;;;;9.23;1.80;;;;;;;;;;5106459;28;20032;-61
2020/12/22 12:57:37;;;;;;;5.68;1.10;;;;;;;;;;5107308;28;20030;-61
2020/12/22 13:00:05;;;;;;;9.95;1.50;;;;;;;;;;5105451;28;20400;-61
2020/12/22 13:02:31;;;;;;;5.90;1.10;;;;;;;;;;5104154;28;20046;-62
2020/12/22 13:05:02;;;;;;;5.40;0.93;;;;;;;;;;5110118;28;20101;-60
2020/12/22 13:07:28;;;;;;;7.60;1.42;;;;;;;;;;5108366;28;20036;-60
2020/12/22 13:09:54;;;;;;;5.20;1.52;;;;;;;;;;5105850;28;20114;-60
2020/12/22 13:12:20;;;;;;;8.35;1.88;;;;;;;;;;5105848;28;20024;-61
2020/12/22 13:14:46;;;;;;;8.25;1.70;;;;;;;;;;5105815;28;20038;-61
2020/12/22 13:17:12;;;;;;;7.65;2.00;;;;;;;;;;5107734;28;20040;-61
2020/12/22 13:19:38;;;;;;;6.63;1.75;;;;;;;;;;5103544;28;20046;-61
2020/12/22 13:22:04;;;;;;;4.82;1.23;;;;;;;;;;5102285;28;20039;-63
2020/12/22 13:24:31;;;;;;;4.90;1.30;;;;;;;;;;5104100;28;20016;-60
2020/12/22 13:26:57;;;;;;;3.53;1.10;;;;;;;;;;5104748;28;20418;-61
2020/12/22 13:29:23;;;;;;;9.68;1.80;;;;;;;;;;5105895;28;20023;-60
2020/12/22 13:31:49;;;;;;;6.22;1.60;;;;;;;;;;5108066;28;20078;-61
2020/12/22 13:34:16;;;;;;;4.75;1.60;;;;;;;;;;5103683;28;20015;-61
2020/12/22 13:36:42;;;;;;;6.05;1.77;;;;;;;;;;5104160;28;20031;-61
2020/12/22 13:39:08;;;;;;;9.32;1.25;;;;;;;;;;5106172;27;20024;-61
2020/12/22 13:41:34;;;;;;;10.38;1.40;;;;;;;;;;5114168;27;20491;-61
2020/12/22 13:44:00;;;;;;;7.88;1.70;;;;;;;;;;5117182;27;20183;-61
2020/12/22 13:46:27;;;;;;;3.75;1.00;;;;;;;;;;5111073;27;20035;-61
2020/12/22 13:48:53;;;;;;;5.43;1.23;;;;;;;;;;5110910;27;20106;-61
2020/12/22 13:51:19;;;;;;;8.43;1.20;;;;;;;;;;5105597;28;20492;-61
2020/12/22 13:53:46;;;;;;;10.00;1.50;;;;;;;;;;5106880;28;20063;-65
2020/12/22 13:56:16;;;;;;;12.27;1.60;;;;;;;;;;5108035;28;20120;-65
2020/12/22 13:58:43;;;;;;;8.05;1.20;;;;;;;;;;5107845;28;20715;-66
2020/12/22 14:01:09;;;;;;;7.38;0.95;;;;;;;;;;5104779;28;20082;-65
2020/12/22 14:03:36;;;;;;;6.25;1.45;;;;;;;;;;5110738;28;20023;-60
2020/12/22 14:06:02;;;;;;;11.70;1.70;;;;;;;;;;5103989;28;20416;-59
2020/12/22 14:08:28;;;;;;;9.23;1.42;;;;;;;;;;5110951;28;20051;-59
2020/12/22 14:10:54;;;;;;;5.35;1.52;;;;;;;;;;5126552;27;20495;-59
2020/12/22 14:13:21;;;;;;;5.88;1.63;;;;;;;;;;5099601;28;20034;-59
2020/12/22 14:15:47;;;;;;;7.75;1.65;;;;;;;;;;5099938;28;20027;-59
2020/12/22 14:18:13;;;;;;;5.75;2.85;;;;;;;;;;5095726;28;20039;-59
2020/12/22 14:20:39;;;;;;;9.73;2.95;;;;;;;;;;5113657;27;20138;-59
2020/12/22 14:23:06;;;;;;;20.63;13.27;;;;;;;;;;5097336;28;20024;-59
2020/12/22 14:25:32;;;;;;;10.82;3.30;;;;;;;;;;5110326;28;20034;-59
2020/12/22 14:27:58;;;;;;;7.80;2.90;;;;;;;;;;5109031;28;20024;-60
2020/12/22 14:30:24;;;;;;;9.52;2.88;;;;;;;;;;5109474;28;20028;-59
2020/12/22 14:32:50;;;;;;;7.75;3.25;;;;;;;;;;5102581;28;20036;-59
2020/12/22 14:35:16;;;;;;;8.90;3.17;;;;;;;;;;5103970;28;20515;-59
2020/12/22 14:37:42;;;;;;;4.88;2.17;;;;;;;;;;5106186;28;20034;-59
2020/12/22 14:40:08;;;;;;;5.10;2.78;;;;;;;;;;5103280;28;20097;-59
2020/12/22 14:42:35;;;;;;;5.97;3.20;;;;;;;;;;5102501;28;20110;-59
2020/12/22 14:45:01;;;;;;;5.30;2.00;;;;;;;;;;5104850;28;20101;-59
2020/12/22 14:47:27;;;;;;;3.67;1.83;;;;;;;;;;5102611;28;20020;-59
2020/12/22 14:49:53;;;;;;;2.85;1.20;;;;;;;;;;5105769;28;20484;-59
2020/12/22 14:52:19;;;;;;;7.22;1.33;;;;;;;;;;5104238;28;20501;-59
2020/12/22 14:54:45;;;;;;;4.68;1.30;;;;;;;;;;5103576;28;20035;-59
2020/12/22 14:57:11;;;;;;;4.65;2.00;;;;;;;;;;5101502;28;20395;-59
2020/12/22 14:59:41;;;;;;;6.80;2.53;;;;;;;;;;5095179;28;20071;-59
2020/12/22 15:02:07;;;;;;;3.45;1.77;;;;;;;;;;5109643;28;20094;-59
2020/12/22 15:04:35;;;;;;;6.22;1.30;;;;;;;;;;5098160;28;20027;-59
2020/12/22 15:07:03;;;;;;;3.95;1.23;;;;;;;;;;5105182;28;20057;-59
2020/12/22 15:09:29;;;;;;;3.28;1.55;;;;;;;;;;5106204;28;20480;-59
2020/12/22 15:11:55;;;;;;;1.40;0.80;;;;;;;;;;5099000;28;20050;-59
2020/12/22 15:14:21;;;;;;;1.63;1.23;;;;;;;;;;5093731;28;20022;-61
2020/12/22 15:16:48;;;;;;;3.10;1.83;;;;;;;;;;5098441;28;20028;-59
2020/12/22 15:19:14;;;;;;;6.03;1.92;;;;;;;;;;5098512;28;20491;-59
2020/12/22 15:21:40;;;;;;;3.55;1.30;;;;;;;;;;5098879;28;20028;-59
2020/12/22 15:24:06;;;;;;;2.58;1.50;;;;;;;;;;5098045;28;20485;-64
2020/12/22 15:26:32;;;;;;;4.45;2.55;;;;;;;;;;5094276;28;20118;-63
2020/12/22 15:28:58;;;;;;;2.97;2.00;;;;;;;;;;5109711;28;20019;-63
2020/12/22 15:31:24;;;;;;;2.35;1.80;;;;;;;;;;5098864;28;20031;-63
2020/12/22 15:33:51;;;;;;;1.77;1.25;;;;;;;;;;5098081;28;20020;-64
2020/12/22 15:36:17;;;;;;;2.55;1.48;;;;;;;;;;5098625;28;20039;-64
2020/12/22 15:38:44;;;;;;;0.98;0.60;;;;;;;;;;5095815;28;20027;-64
2020/12/22 15:41:11;;;;;;;0.80;0.45;;;;;;;;;;5110399;28;20040;-63
2020/12/22 15:43:37;;;;;;;1.52;0.70;;;;;;;;;;5098097;28;20503;-64
2020/12/22 15:46:04;;;;;;;1.52;1.05;;;;;;;;;;5104878;28;20552;-65
2020/12/22 15:48:31;;;;;;;2.78;0.77;;;;;;;;;;5104755;28;20024;-64
2020/12/22 15:50:57;;;;;;;1.20;0.85;;;;;;;;;;5098273;28;20034;-63
2020/12/22 15:53:23;;;;;;;0.88;0.70;;;;;;;;;;5093882;28;20612;-65
2020/12/22 15:55:50;;;;;;;0.90;0.70;;;;;;;;;;5109180;28;20032;-62
2020/12/22 15:58:16;;;;;;;0.88;0.57;;;;;;;;;;5098459;28;20020;-63
2020/12/22 16:00:42;;;;;;;0.88;0.50;;;;;;;;;;5097285;28;20055;-62
2020/12/22 16:03:08;;;;;;;3.08;0.98;;;;;;;;;;5098055;28;20048;-63
2020/12/22 16:05:34;;;;;;;1.75;1.10;;;;;;;;;;5095075;28;20036;-64
2020/12/22 16:08:00;;;;;;;0.77;0.50;;;;;;;;;;5102615;28;20028;-63
2020/12/22 16:10:26;;;;;;;1.30;0.68;;;;;;;;;;5098020;28;20107;-63
2020/12/22 16:12:53;;;;;;;1.65;0.50;;;;;;;;;;5102080;27;20074;-59
2020/12/22 16:15:19;;;;;;;3.42;0.70;;;;;;;;;;5104304;27;20110;-63
2020/12/22 16:17:45;;;;;;;1.13;0.50;;;;;;;;;;5098440;27;20070;-61
2020/12/22 16:20:11;;;;;;;1.33;0.47;;;;;;;;;;5109396;27;20080;-63
2020/12/22 16:22:37;;;;;;;1.35;0.70;;;;;;;;;;5096824;28;20097;-64
2020/12/22 16:25:08;;;;;;;1.40;0.73;;;;;;;;;;5100663;28;20030;-64
2020/12/22 16:27:35;;;;;;;3.10;1.08;;;;;;;;;;5103755;28;20026;-65
2020/12/22 16:30:01;;;;;;;2.20;0.90;;;;;;;;;;5096482;28;20103;-64
2020/12/22 16:32:27;;;;;;;4.68;0.90;;;;;;;;;;5092884;28;20342;-64
2020/12/22 16:34:53;;;;;;;1.98;0.80;;;;;;;;;;5094940;28;20472;-57
2020/12/22 16:37:19;;;;;;;2.85;0.80;;;;;;;;;;5106504;28;20054;-63
2020/12/22 16:39:46;;;;;;;2.88;1.10;;;;;;;;;;5104339;28;20500;-64
2020/12/22 16:42:12;;;;;;;2.42;1.00;;;;;;;;;;5105407;28;20048;-65
2020/12/22 16:44:39;;;;;;;1.75;0.73;;;;;;;;;;5108552;28;20032;-64
2020/12/22 16:47:05;;;;;;;2.75;0.90;;;;;;;;;;5094343;28;20036;-65
2020/12/22 16:49:31;;;;;;;4.00;1.20;;;;;;;;;;5099398;28;20031;-64
2020/12/22 16:51:59;;;;;;;4.53;1.33;;;;;;;;;;5099267;28;20031;-66
2020/12/22 16:54:26;;;;;;;1.83;1.00;;;;;;;;;;5101934;28;20024;-61
2020/12/22 16:56:52;;;;;;;6.72;1.27;;;;;;;;;;5099957;28;20500;-64
2020/12/22 16:59:18;;;;;;;6.03;1.30;;;;;;;;;;5092367;28;20024;-64
2020/12/22 17:01:46;;;;;;;4.05;1.02;;;;;;;;;;5095649;28;20055;-63
2020/12/22 17:04:12;;;;;;;6.60;1.35;;;;;;;;;;5101399;28;20015;-63
2020/12/22 17:06:41;;;;;;;7.03;1.10;;;;;;;;;;5102039;28;20041;-63
2020/12/22 17:09:08;;;;;;;5.43;1.25;;;;;;;;;;5087033;28;20028;-64
2020/12/22 17:11:34;;;;;;;7.72;1.33;;;;;;;;;;5108402;28;20464;-64
2020/12/22 17:14:00;;;;;;;5.13;1.10;;;;;;;;;;5094085;28;20031;-62
2020/12/22 17:16:26;;;;;;;5.90;0.80;;;;;;;;;;5106417;28;20027;-63
2020/12/22 17:18:55;;;;;;;4.75;0.80;;;;;;;;;;5100341;28;20024;-63
2020/12/22 17:21:21;;;;;;;4.05;0.88;;;;;;;;;;5096428;28;20511;-63
2020/12/22 17:23:47;;;;;;;4.15;0.85;;;;;;;;;;5095115;28;20399;-62
2020/12/22 17:26:14;;;;;;;3.60;0.90;;;;;;;;;;5093235;28;20135;-63
2020/12/22 17:28:41;;;;;;;3.67;1.08;;;;;;;;;;5095656;28;20025;-64
2020/12/22 17:31:07;;;;;;;4.68;0.82;;;;;;;;;;5096348;28;20031;-63
2020/12/22 17:33:33;;;;;;;2.28;0.82;;;;;;;;;;5096537;28;20049;-62
2020/12/22 17:35:59;;;;;;;5.28;1.50;;;;;;;;;;5093946;28;20036;-64
2020/12/22 17:38:25;;;;;;;8.07;1.20;;;;;;;;;;5107876;28;20060;-64
2020/12/22 17:40:51;;;;;;;14.35;3.38;;;;;;;;;;5095473;28;20059;-63
2020/12/22 17:43:18;;;;;;;6.45;2.55;;;;;;;;;;5104732;28;20084;-64
2020/12/22 17:45:44;;;;;;;5.70;2.38;;;;;;;;;;5101059;28;20080;-64
2020/12/22 17:48:10;;;;;;;5.72;2.38;;;;;;;;;;5102792;28;20024;-64
2020/12/22 17:50:36;;;;;;;5.55;1.75;;;;;;;;;;5093351;28;20032;-63
2020/12/22 17:53:02;;;;;;;4.03;1.40;;;;;;;;;;5110264;28;20031;-64
2020/12/22 17:55:29;;;;;;;3.58;1.65;;;;;;;;;;5095965;28;20073;-63
2020/12/22 17:57:58;;;;;;;4.45;1.20;;;;;;;;;;5095880;28;20481;-64
2020/12/22 18:00:25;;;;;;;4.10;1.05;;;;;;;;;;5097822;28;20115;-64
2020/12/22 18:02:51;;;;;;;2.85;1.13;;;;;;;;;;5107233;28;20407;-63
2020/12/22 18:05:17;;;;;;;5.57;1.63;;;;;;;;;;5092022;28;20036;-63
2020/12/22 18:07:43;;;;;;;2.35;0.70;;;;;;;;;;5095522;28;20102;-63
2020/12/22 18:10:09;;;;;;;5.82;1.10;;;;;;;;;;5100405;28;20499;-64
2020/12/22 18:12:35;;;;;;;4.88;1.15;;;;;;;;;;5108120;28;20077;-64
2020/12/22 18:15:01;;;;;;;3.45;1.00;;;;;;;;;;5113308;28;20033;-61
2020/12/22 18:17:28;;;;;;;3.83;1.30;;;;;;;;;;5117402;28;20024;-62
2020/12/22 18:19:54;;;;;;;2.85;1.00;;;;;;;;;;5121012;28;20031;-61
2020/12/22 18:22:20;;;;;;;2.53;0.90;;;;;;;;;;5117156;28;20036;-62
2020/12/22 18:24:46;;;;;;;3.08;1.10;;;;;;;;;;5102195;28;20036;-64
2020/12/22 18:27:13;;;;;;;4.30;1.58;;;;;;;;;;5095956;28;20032;-64
2020/12/22 18:29:39;;;;;;;2.65;1.00;;;;;;;;;;5113773;28;20385;-62
2020/12/22 18:32:06;;;;;;;3.95;1.30;;;;;;;;;;5090072;28;20078;-64
2020/12/22 18:34:32;;;;;;;3.78;1.00;;;;;;;;;;5092861;28;20028;-63
2020/12/22 18:36:58;;;;;;;5.25;1.10;;;;;;;;;;5093484;28;20393;-63
2020/12/22 18:39:24;;;;;;;2.03;0.93;;;;;;;;;;5093564;28;20047;-64
2020/12/22 18:41:50;;;;;;;3.50;1.33;;;;;;;;;;5092777;28;20404;-64
2020/12/22 18:44:16;;;;;;;3.65;1.35;;;;;;;;;;5089846;28;20024;-60
2020/12/22 18:46:42;;;;;;;4.00;1.23;;;;;;;;;;5093025;28;20651;-63
2020/12/22 18:49:08;;;;;;;2.85;0.90;;;;;;;;;;5093208;28;20481;-62
2020/12/22 18:51:34;;;;;;;4.00;1.10;;;;;;;;;;5093557;28;20476;-63
2020/12/22 18:54:01;;;;;;;4.57;1.30;;;;;;;;;;5091322;28;20055;-64
2020/12/22 18:56:27;;;;;;;4.68;1.77;;;;;;;;;;5105666;28;20031;-62
2020/12/22 18:58:53;;;;;;;2.47;0.90;;;;;;;;;;5131255;27;20383;-64
2020/12/22 19:01:20;;;;;;;4.22;1.15;;;;;;;;;;5098936;28;20045;-62
2020/12/22 19:03:49;;;;;;;8.20;1.63;;;;;;;;;;5099377;28;20032;-64
2020/12/22 19:06:15;;;;;;;3.13;1.40;;;;;;;;;;5099292;28;20024;-63
2020/12/22 19:08:41;;;;;;;6.40;1.27;;;;;;;;;;5115683;27;20036;-63
2020/12/22 19:11:07;;;;;;;4.25;1.15;;;;;;;;;;5098837;28;20046;-64
2020/12/22 19:13:34;;;;;;;3.83;1.13;;;;;;;;;;5104606;28;20031;-64
2020/12/22 19:16:02;;;;;;;2.97;1.00;;;;;;;;;;5102340;28;20028;-63
2020/12/22 19:18:28;;;;;;;4.28;1.13;;;;;;;;;;5106131;28;20020;-63
2020/12/22 19:20:55;;;;;;;1.80;0.80;;;;;;;;;;5107480;27;20389;-64
2020/12/22 19:23:21;;;;;;;4.53;1.33;;;;;;;;;;5094749;28;20028;-63
2020/12/22 19:25:47;;;;;;;5.35;1.20;;;;;;;;;;5106766;27;20031;-58
2020/12/22 19:28:13;;;;;;;2.78;0.82;;;;;;;;;;5100251;27;20038;-64
2020/12/22 19:30:39;;;;;;;2.45;1.20;;;;;;;;;;5094432;28;20215;-63
2020/12/22 19:33:05;;;;;;;3.72;1.00;;;;;;;;;;5095081;28;20146;-63
2020/12/22 19:35:31;;;;;;;3.03;0.90;;;;;;;;;;5092087;28;20099;-62
2020/12/22 19:37:57;;;;;;;2.75;0.95;;;;;;;;;;5097405;28;20074;-63
2020/12/22 19:40:23;;;;;;;1.88;0.90;;;;;;;;;;5101888;28;20032;-64
2020/12/22 19:42:49;;;;;;;4.90;0.93;;;;;;;;;;5103263;28;20055;-62
2020/12/22 19:45:16;;;;;;;4.38;1.15;;;;;;;;;;5103202;28;20031;-64
2020/12/22 19:47:42;;;;;;;3.33;1.33;;;;;;;;;;5105344;28;20408;-65
2020/12/22 19:50:08;;;;;;;1.30;0.60;;;;;;;;;;5101600;28;20438;-62
2020/12/22 19:52:34;;;;;;;1.92;0.85;;;;;;;;;;5102542;28;20034;-64
2020/12/22 19:55:00;;;;;;;3.17;0.70;;;;;;;;;;5097545;28;20033;-64
2020/12/22 19:57:27;;;;;;;3.83;0.80;;;;;;;;;;5097908;28;20050;-63
2020/12/22 19:59:53;;;;;;;2.53;0.68;;;;;;;;;;5103523;28;20066;-63
2020/12/22 20:02:19;;;;;;;3.00;1.10;;;;;;;;;;5106456;28;20236;-63
2020/12/22 20:04:45;;;;;;;2.72;0.95;;;;;;;;;;5103538;28;20032;-61
2020/12/22 20:07:11;;;;;;;3.63;1.10;;;;;;;;;;5102942;28;20396;-62
2020/12/22 20:09:37;;;;;;;3.83;2.08;;;;;;;;;;5100136;28;20016;-62
2020/12/22 20:12:04;;;;;;;5.25;2.33;;;;;;;;;;5102212;28;20035;-63
2020/12/22 20:14:30;;;;;;;3.15;1.23;;;;;;;;;;5096773;28;20064;-61
2020/12/22 20:16:56;;;;;;;2.78;1.13;;;;;;;;;;5104006;28;20461;-63
2020/12/22 20:19:22;;;;;;;1.70;1.05;;;;;;;;;;5100970;28;20051;-62
2020/12/22 20:21:54;;;;;;;2.85;1.20;;;;;;;;;;5099200;28;20071;-63
2020/12/22 20:24:20;;;;;;;2.65;0.90;;;;;;;;;;5102735;28;20024;-62
2020/12/22 20:26:46;;;;;;;4.25;1.10;;;;;;;;;;5103970;28;20054;-63
2020/12/22 20:29:12;;;;;;;1.63;0.60;;;;;;;;;;5101801;28;20127;-64
2020/12/22 20:31:39;;;;;;;1.83;0.90;;;;;;;;;;5094248;28;20445;-63
2020/12/22 20:34:05;;;;;;;1.92;0.95;;;;;;;;;;5101033;28;20024;-63
2020/12/22 20:36:31;;;;;;;1.83;0.90;;;;;;;;;;5100372;28;20581;-62
2020/12/22 20:38:57;;;;;;;3.10;0.80;;;;;;;;;;5096111;28;20475;-56
2020/12/22 20:41:24;;;;;;;2.53;0.70;;;;;;;;;;5102507;28;20024;-64
2020/12/22 20:43:50;;;;;;;2.70;0.80;;;;;;;;;;5103723;28;20162;-61